sensor_id;sensor_type;location;lat;lon;timestamp;temperature;humidity
24468;DHT22;12634;50.852;5.676;2023-05-31T00:01:33;11.80;99.90
24468;DHT22;12634;50.852;5.676;2023-05-31T00:04:00;11.90;99.90
24468;DHT22;12634;50.852;5.676;2023-05-31T00:06:28;11.70;99.90
24468;DHT22;12634;50.852;5.676;2023-05-31T00:08:55;11.80;99.90
24468;DHT22;12634;50.852;5.676;2023-05-31T00:11:22;11.80;99.90
24468;DHT22;12634;50.852;5.676;2023-05-31T00:13:52;11.90;99.90
24468;DHT22;12634;50.852;5.676;2023-05-31T00:16:19;11.90;99.90
24468;DHT22;12634;50.852;5.676;2023-05-31T00:18:48;11.90;99.90
24468;DHT22;12634;50.852;5.676;2023-05-31T00:21:15;11.90;99.90
24468;DHT22;12634;50.852;5.676;2023-05-31T00:23:42;11.90;99.90
24468;DHT22;12634;50.852;5.676;2023-05-31T00:26:09;11.80;99.90
24468;DHT22;12634;50.852;5.676;2023-05-31T00:28:36;11.70;99.90
24468;DHT22;12634;50.852;5.676;2023-05-31T00:31:03;11.60;99.90
24468;DHT22;12634;50.852;5.676;2023-05-31T00:33:30;11.70;99.90
24468;DHT22;12634;50.852;5.676;2023-05-31T00:35:59;11.70;99.90
24468;DHT22;12634;50.852;5.676;2023-05-31T00:38:26;11.70;99.90
24468;DHT22;12634;50.852;5.676;2023-05-31T00:40:54;11.60;99.90
24468;DHT22;12634;50.852;5.676;2023-05-31T00:43:21;11.50;99.90
24468;DHT22;12634;50.852;5.676;2023-05-31T00:45:48;11.50;99.90
24468;DHT22;12634;50.852;5.676;2023-05-31T00:48:15;11.40;99.90
24468;DHT22;12634;50.852;5.676;2023-05-31T00:50:43;11.30;99.90
24468;DHT22;12634;50.852;5.676;2023-05-31T00:53:12;11.30;99.90
24468;DHT22;12634;50.852;5.676;2023-05-31T00:55:39;11.30;99.90
24468;DHT22;12634;50.852;5.676;2023-05-31T00:58:06;11.20;99.90
24468;DHT22;12634;50.852;5.676;2023-05-31T01:00:33;11.20;99.90
24468;DHT22;12634;50.852;5.676;2023-05-31T01:03:01;11.10;99.90
24468;DHT22;12634;50.852;5.676;2023-05-31T01:05:28;11.10;99.90
24468;DHT22;12634;50.852;5.676;2023-05-31T01:07:55;11.10;99.90
24468;DHT22;12634;50.852;5.676;2023-05-31T01:10:25;11.10;99.90
24468;DHT22;12634;50.852;5.676;2023-05-31T01:12:59;11.10;99.90
24468;DHT22;12634;50.852;5.676;2023-05-31T01:15:32;11.00;99.90
24468;DHT22;12634;50.852;5.676;2023-05-31T01:18:08;11.00;99.90
24468;DHT22;12634;50.852;5.676;2023-05-31T01:20:38;11.10;99.90
24468;DHT22;12634;50.852;5.676;2023-05-31T01:23:18;11.30;99.90
24468;DHT22;12634;50.852;5.676;2023-05-31T01:28:47;11.20;99.90
24468;DHT22;12634;50.852;5.676;2023-05-31T01:31:20;11.20;99.90
24468;DHT22;12634;50.852;5.676;2023-05-31T01:33:48;11.10;99.90
24468;DHT22;12634;50.852;5.676;2023-05-31T01:36:15;11.10;99.90
24468;DHT22;12634;50.852;5.676;2023-05-31T01:38:43;11.10;99.90
24468;DHT22;12634;50.852;5.676;2023-05-31T01:41:11;11.00;99.90
24468;DHT22;12634;50.852;5.676;2023-05-31T01:43:41;11.10;99.90
24468;DHT22;12634;50.852;5.676;2023-05-31T01:46:14;11.10;99.90
24468;DHT22;12634;50.852;5.676;2023-05-31T01:48:42;11.30;99.90
24468;DHT22;12634;50.852;5.676;2023-05-31T01:51:11;11.10;99.90
24468;DHT22;12634;50.852;5.676;2023-05-31T01:53:40;11.10;99.90
24468;DHT22;12634;50.852;5.676;2023-05-31T01:56:08;11.20;99.90
24468;DHT22;12634;50.852;5.676;2023-05-31T01:58:37;11.10;99.90
24468;DHT22;12634;50.852;5.676;2023-05-31T02:01:08;11.00;99.90
24468;DHT22;12634;50.852;5.676;2023-05-31T02:03:38;10.90;99.90
24468;DHT22;12634;50.852;5.676;2023-05-31T02:06:06;11.00;99.90
24468;DHT22;12634;50.852;5.676;2023-05-31T02:08:33;10.90;99.90
24468;DHT22;12634;50.852;5.676;2023-05-31T02:11:00;10.80;99.90
24468;DHT22;12634;50.852;5.676;2023-05-31T02:13:30;10.90;99.90
24468;DHT22;12634;50.852;5.676;2023-05-31T02:15:57;10.80;99.90
24468;DHT22;12634;50.852;5.676;2023-05-31T02:18:24;10.80;99.90
24468;DHT22;12634;50.852;5.676;2023-05-31T02:20:55;10.70;99.90
24468;DHT22;12634;50.852;5.676;2023-05-31T02:23:23;10.80;99.90
24468;DHT22;12634;50.852;5.676;2023-05-31T02:25:50;10.80;99.90
24468;DHT22;12634;50.852;5.676;2023-05-31T02:28:18;10.80;99.90
24468;DHT22;12634;50.852;5.676;2023-05-31T02:30:54;10.70;99.90
24468;DHT22;12634;50.852;5.676;2023-05-31T02:33:21;10.60;99.90
24468;DHT22;12634;50.852;5.676;2023-05-31T02:35:48;10.60;99.90
24468;DHT22;12634;50.852;5.676;2023-05-31T02:38:19;10.70;99.90
24468;DHT22;12634;50.852;5.676;2023-05-31T02:40:46;10.80;99.90
24468;DHT22;12634;50.852;5.676;2023-05-31T02:43:14;10.80;99.90
24468;DHT22;12634;50.852;5.676;2023-05-31T02:45:41;10.70;99.90
24468;DHT22;12634;50.852;5.676;2023-05-31T02:48:08;10.70;99.90
24468;DHT22;12634;50.852;5.676;2023-05-31T02:50:35;10.80;99.90
24468;DHT22;12634;50.852;5.676;2023-05-31T02:53:02;10.70;99.90
24468;DHT22;12634;50.852;5.676;2023-05-31T02:55:32;10.80;99.90
24468;DHT22;12634;50.852;5.676;2023-05-31T02:57:59;10.70;99.90
24468;DHT22;12634;50.852;5.676;2023-05-31T03:00:27;10.60;99.90
24468;DHT22;12634;50.852;5.676;2023-05-31T03:02:54;10.60;99.90
24468;DHT22;12634;50.852;5.676;2023-05-31T03:05:21;10.50;99.90
24468;DHT22;12634;50.852;5.676;2023-05-31T03:07:49;10.40;99.90
24468;DHT22;12634;50.852;5.676;2023-05-31T03:10:16;10.60;99.90
24468;DHT22;12634;50.852;5.676;2023-05-31T03:12:45;10.60;99.90
24468;DHT22;12634;50.852;5.676;2023-05-31T03:15:12;10.70;99.90
24468;DHT22;12634;50.852;5.676;2023-05-31T03:17:39;10.60;99.90
24468;DHT22;12634;50.852;5.676;2023-05-31T03:20:07;10.50;99.90
24468;DHT22;12634;50.852;5.676;2023-05-31T03:22:35;10.70;99.90
24468;DHT22;12634;50.852;5.676;2023-05-31T03:25:03;10.60;99.90
24468;DHT22;12634;50.852;5.676;2023-05-31T03:27:30;10.60;99.90
24468;DHT22;12634;50.852;5.676;2023-05-31T03:29:59;10.50;99.90
24468;DHT22;12634;50.852;5.676;2023-05-31T03:32:26;10.50;99.90
24468;DHT22;12634;50.852;5.676;2023-05-31T03:34:54;10.60;99.90
24468;DHT22;12634;50.852;5.676;2023-05-31T03:37:21;10.60;99.90
24468;DHT22;12634;50.852;5.676;2023-05-31T03:39:48;10.70;99.90
24468;DHT22;12634;50.852;5.676;2023-05-31T03:42:16;10.70;99.90
24468;DHT22;12634;50.852;5.676;2023-05-31T03:44:43;10.60;99.90
24468;DHT22;12634;50.852;5.676;2023-05-31T03:47:11;10.70;99.90
24468;DHT22;12634;50.852;5.676;2023-05-31T03:49:39;10.70;99.90
24468;DHT22;12634;50.852;5.676;2023-05-31T03:52:06;10.80;99.90
24468;DHT22;12634;50.852;5.676;2023-05-31T03:54:34;10.70;99.90
24468;DHT22;12634;50.852;5.676;2023-05-31T03:57:03;10.80;99.90
24468;DHT22;12634;50.852;5.676;2023-05-31T03:59:31;10.80;99.90
24468;DHT22;12634;50.852;5.676;2023-05-31T04:01:58;10.90;99.90
24468;DHT22;12634;50.852;5.676;2023-05-31T04:04:27;11.00;99.90
24468;DHT22;12634;50.852;5.676;2023-05-31T04:06:54;11.10;99.90
24468;DHT22;12634;50.852;5.676;2023-05-31T04:09:21;11.10;99.90
24468;DHT22;12634;50.852;5.676;2023-05-31T04:11:49;11.10;99.90
24468;DHT22;12634;50.852;5.676;2023-05-31T04:14:16;11.20;99.90
24468;DHT22;12634;50.852;5.676;2023-05-31T04:16:43;11.20;99.90
24468;DHT22;12634;50.852;5.676;2023-05-31T04:19:10;11.30;99.90
24468;DHT22;12634;50.852;5.676;2023-05-31T04:21:39;11.30;99.90
24468;DHT22;12634;50.852;5.676;2023-05-31T04:24:06;11.40;99.90
24468;DHT22;12634;50.852;5.676;2023-05-31T04:26:33;11.50;99.90
24468;DHT22;12634;50.852;5.676;2023-05-31T04:29:01;11.60;99.90
24468;DHT22;12634;50.852;5.676;2023-05-31T04:31:29;11.70;99.90
24468;DHT22;12634;50.852;5.676;2023-05-31T04:33:57;11.80;99.90
24468;DHT22;12634;50.852;5.676;2023-05-31T04:36:26;11.70;99.90
24468;DHT22;12634;50.852;5.676;2023-05-31T04:38:55;11.80;99.90
24468;DHT22;12634;50.852;5.676;2023-05-31T04:41:23;11.90;99.90
24468;DHT22;12634;50.852;5.676;2023-05-31T04:43:51;12.00;99.90
24468;DHT22;12634;50.852;5.676;2023-05-31T04:46:19;12.20;99.90
24468;DHT22;12634;50.852;5.676;2023-05-31T04:48:47;12.20;99.90
24468;DHT22;12634;50.852;5.676;2023-05-31T04:51:16;12.20;99.90
24468;DHT22;12634;50.852;5.676;2023-05-31T04:53:43;12.30;99.90
24468;DHT22;12634;50.852;5.676;2023-05-31T04:56:12;12.40;99.90
24468;DHT22;12634;50.852;5.676;2023-05-31T04:58:39;12.50;99.90
24468;DHT22;12634;50.852;5.676;2023-05-31T05:01:06;12.90;99.90
24468;DHT22;12634;50.852;5.676;2023-05-31T05:03:34;13.20;99.90
24468;DHT22;12634;50.852;5.676;2023-05-31T05:06:11;13.50;99.90
24468;DHT22;12634;50.852;5.676;2023-05-31T05:08:39;13.90;99.90
24468;DHT22;12634;50.852;5.676;2023-05-31T05:11:06;13.90;99.90
24468;DHT22;12634;50.852;5.676;2023-05-31T05:13:35;13.70;99.90
24468;DHT22;12634;50.852;5.676;2023-05-31T05:16:02;13.70;99.90
24468;DHT22;12634;50.852;5.676;2023-05-31T05:18:30;13.80;99.90
24468;DHT22;12634;50.852;5.676;2023-05-31T05:20:57;13.50;99.90
24468;DHT22;12634;50.852;5.676;2023-05-31T05:23:24;13.50;99.90
24468;DHT22;12634;50.852;5.676;2023-05-31T05:25:51;13.70;99.90
24468;DHT22;12634;50.852;5.676;2023-05-31T05:28:18;13.60;99.90
24468;DHT22;12634;50.852;5.676;2023-05-31T05:30:50;13.40;99.90
24468;DHT22;12634;50.852;5.676;2023-05-31T05:33:19;13.30;99.90
24468;DHT22;12634;50.852;5.676;2023-05-31T05:35:46;13.50;99.90
24468;DHT22;12634;50.852;5.676;2023-05-31T05:38:13;14.20;99.90
24468;DHT22;12634;50.852;5.676;2023-05-31T05:40:40;14.60;99.90
24468;DHT22;12634;50.852;5.676;2023-05-31T05:43:08;14.70;99.90
24468;DHT22;12634;50.852;5.676;2023-05-31T05:45:35;14.40;99.90
24468;DHT22;12634;50.852;5.676;2023-05-31T05:48:03;14.20;99.90
24468;DHT22;12634;50.852;5.676;2023-05-31T05:50:31;14.20;99.90
24468;DHT22;12634;50.852;5.676;2023-05-31T05:52:58;14.10;99.90
24468;DHT22;12634;50.852;5.676;2023-05-31T05:55:25;14.00;99.90
24468;DHT22;12634;50.852;5.676;2023-05-31T05:57:52;14.00;99.90
24468;DHT22;12634;50.852;5.676;2023-05-31T06:00:19;14.10;99.90
24468;DHT22;12634;50.852;5.676;2023-05-31T06:02:47;14.20;99.90
24468;DHT22;12634;50.852;5.676;2023-05-31T06:05:16;14.40;99.90
24468;DHT22;12634;50.852;5.676;2023-05-31T06:07:43;14.80;99.90
24468;DHT22;12634;50.852;5.676;2023-05-31T06:10:10;15.60;99.90
24468;DHT22;12634;50.852;5.676;2023-05-31T06:12:38;16.00;99.90
24468;DHT22;12634;50.852;5.676;2023-05-31T06:15:06;16.70;99.90
24468;DHT22;12634;50.852;5.676;2023-05-31T06:17:34;17.20;99.90
24468;DHT22;12634;50.852;5.676;2023-05-31T06:20:02;18.00;99.90
24468;DHT22;12634;50.852;5.676;2023-05-31T06:22:32;17.80;99.90
24468;DHT22;12634;50.852;5.676;2023-05-31T06:24:59;17.80;99.90
24468;DHT22;12634;50.852;5.676;2023-05-31T06:27:26;18.20;99.90
24468;DHT22;12634;50.852;5.676;2023-05-31T06:29:53;18.30;99.90
24468;DHT22;12634;50.852;5.676;2023-05-31T06:32:24;18.30;99.90
24468;DHT22;12634;50.852;5.676;2023-05-31T06:34:52;18.60;99.90
24468;DHT22;12634;50.852;5.676;2023-05-31T06:37:19;18.70;99.90
24468;DHT22;12634;50.852;5.676;2023-05-31T06:39:49;19.00;99.90
24468;DHT22;12634;50.852;5.676;2023-05-31T06:42:16;19.20;99.90
24468;DHT22;12634;50.852;5.676;2023-05-31T06:44:44;19.60;99.90
24468;DHT22;12634;50.852;5.676;2023-05-31T06:47:11;19.60;99.90
24468;DHT22;12634;50.852;5.676;2023-05-31T06:49:38;19.70;99.90
24468;DHT22;12634;50.852;5.676;2023-05-31T06:52:06;19.80;99.90
24468;DHT22;12634;50.852;5.676;2023-05-31T06:54:35;19.80;99.90
24468;DHT22;12634;50.852;5.676;2023-05-31T06:57:05;19.60;99.90
24468;DHT22;12634;50.852;5.676;2023-05-31T06:59:32;19.80;99.90
24468;DHT22;12634;50.852;5.676;2023-05-31T07:01:59;19.80;99.90
24468;DHT22;12634;50.852;5.676;2023-05-31T07:04:26;19.50;99.90
24468;DHT22;12634;50.852;5.676;2023-05-31T07:06:53;19.50;99.90
24468;DHT22;12634;50.852;5.676;2023-05-31T07:09:21;19.60;99.90
24468;DHT22;12634;50.852;5.676;2023-05-31T07:11:48;20.50;99.90
24468;DHT22;12634;50.852;5.676;2023-05-31T07:14:17;21.10;99.90
24468;DHT22;12634;50.852;5.676;2023-05-31T07:16:44;21.60;99.90
24468;DHT22;12634;50.852;5.676;2023-05-31T07:19:11;21.50;99.90
24468;DHT22;12634;50.852;5.676;2023-05-31T07:21:38;21.00;99.90
24468;DHT22;12634;50.852;5.676;2023-05-31T07:24:06;21.40;99.90
24468;DHT22;12634;50.852;5.676;2023-05-31T07:26:35;21.70;99.90
24468;DHT22;12634;50.852;5.676;2023-05-31T07:29:02;21.50;99.90
24468;DHT22;12634;50.852;5.676;2023-05-31T07:31:31;21.20;99.90
24468;DHT22;12634;50.852;5.676;2023-05-31T07:33:58;21.70;99.90
24468;DHT22;12634;50.852;5.676;2023-05-31T07:36:25;22.20;99.90
24468;DHT22;12634;50.852;5.676;2023-05-31T07:38:53;22.50;99.90
24468;DHT22;12634;50.852;5.676;2023-05-31T07:41:20;23.00;99.90
24468;DHT22;12634;50.852;5.676;2023-05-31T07:43:47;22.60;99.90
24468;DHT22;12634;50.852;5.676;2023-05-31T07:46:14;22.70;99.90
24468;DHT22;12634;50.852;5.676;2023-05-31T07:48:42;22.90;99.90
24468;DHT22;12634;50.852;5.676;2023-05-31T07:51:10;23.10;99.90
24468;DHT22;12634;50.852;5.676;2023-05-31T07:53:37;22.90;99.90
24468;DHT22;12634;50.852;5.676;2023-05-31T07:56:06;23.50;99.90
24468;DHT22;12634;50.852;5.676;2023-05-31T07:58:33;23.70;99.90
24468;DHT22;12634;50.852;5.676;2023-05-31T08:01:00;24.00;99.90
24468;DHT22;12634;50.852;5.676;2023-05-31T08:03:28;24.10;99.90
24468;DHT22;12634;50.852;5.676;2023-05-31T08:05:57;24.30;99.90
24468;DHT22;12634;50.852;5.676;2023-05-31T08:08:24;24.30;99.90
24468;DHT22;12634;50.852;5.676;2023-05-31T08:10:52;24.50;99.90
24468;DHT22;12634;50.852;5.676;2023-05-31T08:13:19;24.50;99.90
24468;DHT22;12634;50.852;5.676;2023-05-31T08:15:46;23.90;99.90
24468;DHT22;12634;50.852;5.676;2023-05-31T08:18:13;24.00;99.90
24468;DHT22;12634;50.852;5.676;2023-05-31T08:20:41;24.60;99.90
24468;DHT22;12634;50.852;5.676;2023-05-31T08:23:16;24.50;99.90
24468;DHT22;12634;50.852;5.676;2023-05-31T08:25:43;24.50;99.90
24468;DHT22;12634;50.852;5.676;2023-05-31T08:28:10;24.60;99.90
24468;DHT22;12634;50.852;5.676;2023-05-31T08:30:37;24.70;99.90
24468;DHT22;12634;50.852;5.676;2023-05-31T08:33:05;25.30;99.90
24468;DHT22;12634;50.852;5.676;2023-05-31T08:35:33;25.30;99.90
24468;DHT22;12634;50.852;5.676;2023-05-31T08:38:00;25.90;99.90
24468;DHT22;12634;50.852;5.676;2023-05-31T08:40:29;25.70;99.90
24468;DHT22;12634;50.852;5.676;2023-05-31T08:43:00;25.30;99.90
24468;DHT22;12634;50.852;5.676;2023-05-31T08:45:31;25.60;99.90
24468;DHT22;12634;50.852;5.676;2023-05-31T08:48:08;25.00;99.90
24468;DHT22;12634;50.852;5.676;2023-05-31T08:50:37;24.60;99.90
24468;DHT22;12634;50.852;5.676;2023-05-31T08:53:06;25.20;99.90
24468;DHT22;12634;50.852;5.676;2023-05-31T08:55:37;25.90;99.90
24468;DHT22;12634;50.852;5.676;2023-05-31T08:58:05;25.80;99.90
24468;DHT22;12634;50.852;5.676;2023-05-31T09:00:36;26.20;99.90
24468;DHT22;12634;50.852;5.676;2023-05-31T09:03:06;26.50;99.90
24468;DHT22;12634;50.852;5.676;2023-05-31T09:05:33;26.70;99.90
24468;DHT22;12634;50.852;5.676;2023-05-31T09:08:00;26.70;99.90
24468;DHT22;12634;50.852;5.676;2023-05-31T09:10:28;26.00;99.90
24468;DHT22;12634;50.852;5.676;2023-05-31T09:12:57;26.30;99.90
24468;DHT22;12634;50.852;5.676;2023-05-31T09:15:25;25.80;99.90
24468;DHT22;12634;50.852;5.676;2023-05-31T09:17:53;26.60;99.90
24468;DHT22;12634;50.852;5.676;2023-05-31T09:20:30;26.90;99.90
24468;DHT22;12634;50.852;5.676;2023-05-31T09:23:02;27.20;99.90
24468;DHT22;12634;50.852;5.676;2023-05-31T09:25:42;27.20;99.90
24468;DHT22;12634;50.852;5.676;2023-05-31T09:28:12;26.90;99.90
24468;DHT22;12634;50.852;5.676;2023-05-31T09:30:39;26.70;99.90
24468;DHT22;12634;50.852;5.676;2023-05-31T09:33:07;26.40;99.90
24468;DHT22;12634;50.852;5.676;2023-05-31T09:35:34;26.50;99.90
24468;DHT22;12634;50.852;5.676;2023-05-31T09:38:05;26.30;99.90
24468;DHT22;12634;50.852;5.676;2023-05-31T09:40:33;26.40;99.90
24468;DHT22;12634;50.852;5.676;2023-05-31T09:43:00;26.40;99.90
24468;DHT22;12634;50.852;5.676;2023-05-31T09:45:29;26.50;99.90
24468;DHT22;12634;50.852;5.676;2023-05-31T09:47:56;26.40;99.90
24468;DHT22;12634;50.852;5.676;2023-05-31T09:50:24;26.10;99.90
24468;DHT22;12634;50.852;5.676;2023-05-31T09:52:56;26.50;99.90
24468;DHT22;12634;50.852;5.676;2023-05-31T09:55:24;26.60;99.90
24468;DHT22;12634;50.852;5.676;2023-05-31T09:58:05;26.60;99.90
24468;DHT22;12634;50.852;5.676;2023-05-31T10:00:33;26.60;99.90
24468;DHT22;12634;50.852;5.676;2023-05-31T10:03:01;27.10;99.90
24468;DHT22;12634;50.852;5.676;2023-05-31T10:05:30;26.40;99.90
24468;DHT22;12634;50.852;5.676;2023-05-31T10:07:57;26.40;99.90
24468;DHT22;12634;50.852;5.676;2023-05-31T10:10:24;26.60;99.90
24468;DHT22;12634;50.852;5.676;2023-05-31T10:12:57;26.20;99.90
24468;DHT22;12634;50.852;5.676;2023-05-31T10:15:25;26.50;99.90
24468;DHT22;12634;50.852;5.676;2023-05-31T10:17:59;26.70;99.90
24468;DHT22;12634;50.852;5.676;2023-05-31T10:20:31;26.40;99.90
24468;DHT22;12634;50.852;5.676;2023-05-31T10:23:01;26.60;99.90
24468;DHT22;12634;50.852;5.676;2023-05-31T10:25:34;27.00;99.90
24468;DHT22;12634;50.852;5.676;2023-05-31T10:28:07;27.20;99.90
24468;DHT22;12634;50.852;5.676;2023-05-31T10:30:38;27.10;99.90
24468;DHT22;12634;50.852;5.676;2023-05-31T10:33:11;27.00;99.90
24468;DHT22;12634;50.852;5.676;2023-05-31T10:35:38;27.20;99.90
24468;DHT22;12634;50.852;5.676;2023-05-31T10:38:06;27.50;99.90
24468;DHT22;12634;50.852;5.676;2023-05-31T10:40:38;27.00;99.90
24468;DHT22;12634;50.852;5.676;2023-05-31T10:43:14;26.30;99.90
24468;DHT22;12634;50.852;5.676;2023-05-31T10:45:46;26.30;99.90
24468;DHT22;12634;50.852;5.676;2023-05-31T10:48:20;26.50;99.90
24468;DHT22;12634;50.852;5.676;2023-05-31T10:50:53;26.30;99.90
24468;DHT22;12634;50.852;5.676;2023-05-31T10:53:21;26.60;99.90
24468;DHT22;12634;50.852;5.676;2023-05-31T10:55:48;27.10;99.90
24468;DHT22;12634;50.852;5.676;2023-05-31T10:58:26;27.30;99.90
24468;DHT22;12634;50.852;5.676;2023-05-31T11:00:54;27.20;99.90
24468;DHT22;12634;50.852;5.676;2023-05-31T11:03:24;27.50;99.90
24468;DHT22;12634;50.852;5.676;2023-05-31T11:05:55;28.00;99.90
24468;DHT22;12634;50.852;5.676;2023-05-31T11:08:22;27.40;99.90
24468;DHT22;12634;50.852;5.676;2023-05-31T11:10:50;27.40;99.10
24468;DHT22;12634;50.852;5.676;2023-05-31T11:13:18;27.10;99.90
24468;DHT22;12634;50.852;5.676;2023-05-31T11:15:46;27.30;95.50
24468;DHT22;12634;50.852;5.676;2023-05-31T11:18:24;27.50;99.90
24468;DHT22;12634;50.852;5.676;2023-05-31T11:20:52;27.60;98.90
24468;DHT22;12634;50.852;5.676;2023-05-31T11:23:28;27.80;98.20
24468;DHT22;12634;50.852;5.676;2023-05-31T11:26:23;28.10;99.90
24468;DHT22;12634;50.852;5.676;2023-05-31T11:28:53;28.00;95.90
24468;DHT22;12634;50.852;5.676;2023-05-31T11:31:56;27.40;97.70
24468;DHT22;12634;50.852;5.676;2023-05-31T11:34:27;27.60;99.50
24468;DHT22;12634;50.852;5.676;2023-05-31T11:36:58;27.60;98.70
24468;DHT22;12634;50.852;5.676;2023-05-31T11:39:25;28.00;98.80
24468;DHT22;12634;50.852;5.676;2023-05-31T11:41:54;27.50;98.60
24468;DHT22;12634;50.852;5.676;2023-05-31T11:44:26;27.30;98.50
24468;DHT22;12634;50.852;5.676;2023-05-31T11:46:59;27.50;97.90
24468;DHT22;12634;50.852;5.676;2023-05-31T11:49:29;26.90;99.90
24468;DHT22;12634;50.852;5.676;2023-05-31T11:51:58;27.10;99.90
24468;DHT22;12634;50.852;5.676;2023-05-31T11:54:29;27.40;95.90
24468;DHT22;12634;50.852;5.676;2023-05-31T11:57:00;27.20;98.20
24468;DHT22;12634;50.852;5.676;2023-05-31T11:59:29;27.30;99.00
24468;DHT22;12634;50.852;5.676;2023-05-31T12:01:59;27.30;97.90
24468;DHT22;12634;50.852;5.676;2023-05-31T12:04:32;27.40;97.80
24468;DHT22;12634;50.852;5.676;2023-05-31T12:07:01;27.60;99.90
24468;DHT22;12634;50.852;5.676;2023-05-31T12:09:28;28.00;99.60
24468;DHT22;12634;50.852;5.676;2023-05-31T12:11:57;28.70;97.40
24468;DHT22;12634;50.852;5.676;2023-05-31T12:14:24;27.90;95.20
24468;DHT22;12634;50.852;5.676;2023-05-31T12:16:52;28.30;95.70
24468;DHT22;12634;50.852;5.676;2023-05-31T12:19:20;28.60;99.10
24468;DHT22;12634;50.852;5.676;2023-05-31T12:21:48;28.50;97.20
24468;DHT22;12634;50.852;5.676;2023-05-31T12:24:17;28.60;99.90
24468;DHT22;12634;50.852;5.676;2023-05-31T12:26:45;28.60;99.70
24468;DHT22;12634;50.852;5.676;2023-05-31T12:29:14;28.10;93.30
24468;DHT22;12634;50.852;5.676;2023-05-31T12:31:41;28.80;99.90
24468;DHT22;12634;50.852;5.676;2023-05-31T12:34:10;29.10;93.20
24468;DHT22;12634;50.852;5.676;2023-05-31T12:36:40;28.60;95.10
24468;DHT22;12634;50.852;5.676;2023-05-31T12:39:10;29.10;94.60
24468;DHT22;12634;50.852;5.676;2023-05-31T12:41:41;28.90;93.30
24468;DHT22;12634;50.852;5.676;2023-05-31T12:44:12;27.90;93.60
24468;DHT22;12634;50.852;5.676;2023-05-31T12:46:42;28.40;96.50
24468;DHT22;12634;50.852;5.676;2023-05-31T12:49:12;28.70;95.50
24468;DHT22;12634;50.852;5.676;2023-05-31T12:51:39;28.80;97.00
24468;DHT22;12634;50.852;5.676;2023-05-31T12:54:11;28.50;94.50
24468;DHT22;12634;50.852;5.676;2023-05-31T12:56:39;28.60;93.50
24468;DHT22;12634;50.852;5.676;2023-05-31T12:59:07;28.50;95.80
24468;DHT22;12634;50.852;5.676;2023-05-31T13:01:36;28.70;96.70
24468;DHT22;12634;50.852;5.676;2023-05-31T13:04:08;29.30;94.90
24468;DHT22;12634;50.852;5.676;2023-05-31T13:06:35;29.20;93.20
24468;DHT22;12634;50.852;5.676;2023-05-31T13:09:03;29.30;93.50
24468;DHT22;12634;50.852;5.676;2023-05-31T13:11:34;29.30;97.00
24468;DHT22;12634;50.852;5.676;2023-05-31T13:14:02;29.20;90.40
24468;DHT22;12634;50.852;5.676;2023-05-31T13:16:31;28.70;92.30
24468;DHT22;12634;50.852;5.676;2023-05-31T13:18:58;28.40;92.20
24468;DHT22;12634;50.852;5.676;2023-05-31T13:21:26;28.30;92.40
24468;DHT22;12634;50.852;5.676;2023-05-31T13:23:54;28.50;92.70
24468;DHT22;12634;50.852;5.676;2023-05-31T13:26:21;29.40;92.50
24468;DHT22;12634;50.852;5.676;2023-05-31T13:28:50;29.20;90.00
24468;DHT22;12634;50.852;5.676;2023-05-31T13:31:17;28.70;87.00
24468;DHT22;12634;50.852;5.676;2023-05-31T13:33:45;28.10;88.00
24468;DHT22;12634;50.852;5.676;2023-05-31T13:36:13;28.70;92.70
24468;DHT22;12634;50.852;5.676;2023-05-31T13:38:41;29.20;92.10
24468;DHT22;12634;50.852;5.676;2023-05-31T13:41:08;29.50;91.80
24468;DHT22;12634;50.852;5.676;2023-05-31T13:43:36;29.50;90.00
24468;DHT22;12634;50.852;5.676;2023-05-31T13:46:05;29.70;93.10
24468;DHT22;12634;50.852;5.676;2023-05-31T13:48:35;29.80;92.40
24468;DHT22;12634;50.852;5.676;2023-05-31T13:51:02;29.80;90.60
24468;DHT22;12634;50.852;5.676;2023-05-31T13:53:30;29.90;92.10
24468;DHT22;12634;50.852;5.676;2023-05-31T13:55:58;29.50;92.90
24468;DHT22;12634;50.852;5.676;2023-05-31T13:58:25;29.90;91.00
24468;DHT22;12634;50.852;5.676;2023-05-31T14:00:52;30.00;90.80
24468;DHT22;12634;50.852;5.676;2023-05-31T14:03:21;30.10;89.10
24468;DHT22;12634;50.852;5.676;2023-05-31T14:05:48;30.00;88.60
24468;DHT22;12634;50.852;5.676;2023-05-31T14:08:16;29.80;92.10
24468;DHT22;12634;50.852;5.676;2023-05-31T14:10:43;30.10;92.40
24468;DHT22;12634;50.852;5.676;2023-05-31T14:13:11;30.00;91.60
24468;DHT22;12634;50.852;5.676;2023-05-31T14:15:38;29.80;90.40
24468;DHT22;12634;50.852;5.676;2023-05-31T14:18:05;30.30;90.10
24468;DHT22;12634;50.852;5.676;2023-05-31T14:20:34;30.20;92.90
24468;DHT22;12634;50.852;5.676;2023-05-31T14:23:02;29.60;89.70
24468;DHT22;12634;50.852;5.676;2023-05-31T14:25:30;29.60;87.20
24468;DHT22;12634;50.852;5.676;2023-05-31T14:27:57;30.00;86.70
24468;DHT22;12634;50.852;5.676;2023-05-31T14:30:24;30.20;84.20
24468;DHT22;12634;50.852;5.676;2023-05-31T14:32:52;30.10;87.50
24468;DHT22;12634;50.852;5.676;2023-05-31T14:35:20;30.50;90.70
24468;DHT22;12634;50.852;5.676;2023-05-31T14:37:48;29.90;84.20
24468;DHT22;12634;50.852;5.676;2023-05-31T14:40:16;29.60;88.50
24468;DHT22;12634;50.852;5.676;2023-05-31T14:42:43;29.80;84.20
24468;DHT22;12634;50.852;5.676;2023-05-31T14:45:10;29.90;87.80
24468;DHT22;12634;50.852;5.676;2023-05-31T14:47:37;30.20;81.70
24468;DHT22;12634;50.852;5.676;2023-05-31T14:50:05;30.10;88.80
24468;DHT22;12634;50.852;5.676;2023-05-31T14:52:33;30.60;85.50
24468;DHT22;12634;50.852;5.676;2023-05-31T14:55:01;30.60;88.30
24468;DHT22;12634;50.852;5.676;2023-05-31T14:57:28;29.70;81.80
24468;DHT22;12634;50.852;5.676;2023-05-31T14:59:56;29.70;90.30
24468;DHT22;12634;50.852;5.676;2023-05-31T15:02:23;29.70;84.60
24468;DHT22;12634;50.852;5.676;2023-05-31T15:04:50;29.50;86.50
24468;DHT22;12634;50.852;5.676;2023-05-31T15:07:17;29.80;86.90
24468;DHT22;12634;50.852;5.676;2023-05-31T15:09:45;29.70;81.50
24468;DHT22;12634;50.852;5.676;2023-05-31T15:12:13;29.30;84.20
24468;DHT22;12634;50.852;5.676;2023-05-31T15:14:40;29.40;82.80
24468;DHT22;12634;50.852;5.676;2023-05-31T15:17:07;29.20;90.80
24468;DHT22;12634;50.852;5.676;2023-05-31T15:19:35;29.50;79.60
24468;DHT22;12634;50.852;5.676;2023-05-31T15:22:04;29.60;85.10
24468;DHT22;12634;50.852;5.676;2023-05-31T15:24:31;29.20;91.80
24468;DHT22;12634;50.852;5.676;2023-05-31T15:26:58;29.50;83.20
24468;DHT22;12634;50.852;5.676;2023-05-31T15:29:27;29.50;83.20
24468;DHT22;12634;50.852;5.676;2023-05-31T15:31:54;29.10;82.60
24468;DHT22;12634;50.852;5.676;2023-05-31T15:34:23;29.20;85.70
24468;DHT22;12634;50.852;5.676;2023-05-31T15:36:50;29.10;81.20
24468;DHT22;12634;50.852;5.676;2023-05-31T15:39:17;28.80;85.60
24468;DHT22;12634;50.852;5.676;2023-05-31T15:41:45;29.30;82.30